Ukiah, California
Current Conditions -  °F | °C
As of 1:56 AM on Sunday 21 Dec 2014 (Local Time) from KUKI Reporting Station
Haze Haze  
Wind Chill: 12°   Ceiling: 500
Heat Index: 12°   Visibility: 3mi
Dew Point: 11°   Wind: 0mph
Humidity: 93%   Direction: NA
Pressure: 30.25"   Gusts: NA
Location:  39.15°N, 123.2°W
Report Text: KUKI 210956Z AUTO 00000KT 3SM BR OVC005 12/11 A3025 RMK AO2 RAE05B19E31 CIG 002V009 SLP239 P0001 T01220111
Loading
Personal Weather Stations






























Interactive Weather Map New forecast layout! Learn more

10-Day Weather Forecast

Advertisements
Track Severe Weather on mobile